sensor_id;sensor_type;location;lat;lon;timestamp;temperature;humidity
32865;DHT22;19219;44.500;11.188;2023-12-14T00:01:15;7.50;99.90
32865;DHT22;19219;44.500;11.188;2023-12-14T00:03:41;7.50;99.90
32865;DHT22;19219;44.500;11.188;2023-12-14T00:06:09;7.50;99.90
32865;DHT22;19219;44.500;11.188;2023-12-14T00:08:35;7.50;99.90
32865;DHT22;19219;44.500;11.188;2023-12-14T00:11:09;7.40;99.90
32865;DHT22;19219;44.500;11.188;2023-12-14T00:13:35;7.40;99.90
32865;DHT22;19219;44.500;11.188;2023-12-14T00:16:01;7.50;99.90
32865;DHT22;19219;44.500;11.188;2023-12-14T00:18:27;7.50;99.90
32865;DHT22;19219;44.500;11.188;2023-12-14T00:20:53;7.50;99.90
32865;DHT22;19219;44.500;11.188;2023-12-14T00:23:20;7.50;99.90
32865;DHT22;19219;44.500;11.188;2023-12-14T00:25:46;7.40;99.90
32865;DHT22;19219;44.500;11.188;2023-12-14T00:28:12;7.40;99.90
32865;DHT22;19219;44.500;11.188;2023-12-14T00:30:37;7.40;99.90
32865;DHT22;19219;44.500;11.188;2023-12-14T00:33:04;7.50;99.90
32865;DHT22;19219;44.500;11.188;2023-12-14T00:35:30;7.50;99.90
32865;DHT22;19219;44.500;11.188;2023-12-14T00:37:56;7.40;99.90
32865;DHT22;19219;44.500;11.188;2023-12-14T00:40:21;7.40;99.90
32865;DHT22;19219;44.500;11.188;2023-12-14T00:42:47;7.40;99.90
32865;DHT22;19219;44.500;11.188;2023-12-14T00:45:13;7.40;99.90
32865;DHT22;19219;44.500;11.188;2023-12-14T00:47:38;7.50;99.90
32865;DHT22;19219;44.500;11.188;2023-12-14T00:50:04;7.40;99.90
32865;DHT22;19219;44.500;11.188;2023-12-14T00:52:30;7.40;99.90
32865;DHT22;19219;44.500;11.188;2023-12-14T00:54:56;7.50;99.90
32865;DHT22;19219;44.500;11.188;2023-12-14T00:57:21;7.50;99.90
32865;DHT22;19219;44.500;11.188;2023-12-14T00:59:47;7.50;99.90
32865;DHT22;19219;44.500;11.188;2023-12-14T01:02:13;7.60;99.90
32865;DHT22;19219;44.500;11.188;2023-12-14T01:04:39;7.50;99.90
32865;DHT22;19219;44.500;11.188;2023-12-14T01:07:05;7.50;99.90
32865;DHT22;19219;44.500;11.188;2023-12-14T01:09:30;7.50;99.90
32865;DHT22;19219;44.500;11.188;2023-12-14T01:11:56;7.60;99.90
32865;DHT22;19219;44.500;11.188;2023-12-14T01:14:22;7.60;99.90
32865;DHT22;19219;44.500;11.188;2023-12-14T01:16:48;7.60;99.90
32865;DHT22;19219;44.500;11.188;2023-12-14T01:19:13;7.60;99.90
32865;DHT22;19219;44.500;11.188;2023-12-14T01:21:39;7.60;99.90
32865;DHT22;19219;44.500;11.188;2023-12-14T01:24:05;7.60;99.90
32865;DHT22;19219;44.500;11.188;2023-12-14T01:26:31;7.60;99.90
32865;DHT22;19219;44.500;11.188;2023-12-14T01:28:57;7.60;99.90
32865;DHT22;19219;44.500;11.188;2023-12-14T01:31:24;7.50;99.90
32865;DHT22;19219;44.500;11.188;2023-12-14T01:33:50;7.50;99.90
32865;DHT22;19219;44.500;11.188;2023-12-14T01:36:23;7.50;99.90
32865;DHT22;19219;44.500;11.188;2023-12-14T01:38:50;7.60;99.90
32865;DHT22;19219;44.500;11.188;2023-12-14T01:41:16;7.60;99.90
32865;DHT22;19219;44.500;11.188;2023-12-14T01:43:42;7.50;99.90
32865;DHT22;19219;44.500;11.188;2023-12-14T01:46:08;7.40;99.90
32865;DHT22;19219;44.500;11.188;2023-12-14T01:48:33;7.40;99.90
32865;DHT22;19219;44.500;11.188;2023-12-14T01:50:59;7.30;99.90
32865;DHT22;19219;44.500;11.188;2023-12-14T01:53:26;7.40;99.90
32865;DHT22;19219;44.500;11.188;2023-12-14T01:55:52;7.40;99.90
32865;DHT22;19219;44.500;11.188;2023-12-14T01:58:18;7.40;99.90
32865;DHT22;19219;44.500;11.188;2023-12-14T02:00:52;7.40;99.90
32865;DHT22;19219;44.500;11.188;2023-12-14T02:03:18;7.40;99.90
32865;DHT22;19219;44.500;11.188;2023-12-14T02:05:44;7.50;99.90
32865;DHT22;19219;44.500;11.188;2023-12-14T02:08:09;7.50;99.90
32865;DHT22;19219;44.500;11.188;2023-12-14T02:10:35;7.60;99.90
32865;DHT22;19219;44.500;11.188;2023-12-14T02:13:02;7.60;99.90
32865;DHT22;19219;44.500;11.188;2023-12-14T02:15:28;7.60;99.90
32865;DHT22;19219;44.500;11.188;2023-12-14T02:17:54;7.60;99.90
32865;DHT22;19219;44.500;11.188;2023-12-14T02:20:19;7.60;99.90
32865;DHT22;19219;44.500;11.188;2023-12-14T02:22:54;7.60;99.90
32865;DHT22;19219;44.500;11.188;2023-12-14T02:25:21;7.60;99.90
32865;DHT22;19219;44.500;11.188;2023-12-14T02:27:48;7.60;99.90
32865;DHT22;19219;44.500;11.188;2023-12-14T02:30:14;7.60;99.90
32865;DHT22;19219;44.500;11.188;2023-12-14T02:32:40;7.50;99.90
32865;DHT22;19219;44.500;11.188;2023-12-14T02:35:07;7.40;99.90
32865;DHT22;19219;44.500;11.188;2023-12-14T02:37:33;7.50;99.90
32865;DHT22;19219;44.500;11.188;2023-12-14T02:39:59;7.50;99.90
32865;DHT22;19219;44.500;11.188;2023-12-14T02:42:26;7.40;99.90
32865;DHT22;19219;44.500;11.188;2023-12-14T02:44:53;7.40;99.90
32865;DHT22;19219;44.500;11.188;2023-12-14T02:47:19;7.50;99.90
32865;DHT22;19219;44.500;11.188;2023-12-14T02:49:44;7.50;99.90
32865;DHT22;19219;44.500;11.188;2023-12-14T02:52:10;7.50;99.90
32865;DHT22;19219;44.500;11.188;2023-12-14T02:54:39;7.50;99.90
32865;DHT22;19219;44.500;11.188;2023-12-14T02:57:05;7.40;99.90
32865;DHT22;19219;44.500;11.188;2023-12-14T02:59:31;7.50;99.90
32865;DHT22;19219;44.500;11.188;2023-12-14T03:01:57;7.50;99.90
32865;DHT22;19219;44.500;11.188;2023-12-14T03:04:23;7.40;99.90
32865;DHT22;19219;44.500;11.188;2023-12-14T03:06:48;7.40;99.90
32865;DHT22;19219;44.500;11.188;2023-12-14T03:09:14;7.40;99.90
32865;DHT22;19219;44.500;11.188;2023-12-14T03:11:40;7.30;99.90
32865;DHT22;19219;44.500;11.188;2023-12-14T03:14:05;7.30;99.90
32865;DHT22;19219;44.500;11.188;2023-12-14T03:16:31;7.30;99.90
32865;DHT22;19219;44.500;11.188;2023-12-14T03:18:57;7.40;99.90
32865;DHT22;19219;44.500;11.188;2023-12-14T03:21:23;7.40;99.90
32865;DHT22;19219;44.500;11.188;2023-12-14T03:23:49;7.50;99.90
32865;DHT22;19219;44.500;11.188;2023-12-14T03:26:15;7.50;99.90
32865;DHT22;19219;44.500;11.188;2023-12-14T03:28:41;7.50;99.90
32865;DHT22;19219;44.500;11.188;2023-12-14T03:31:07;7.50;99.90
32865;DHT22;19219;44.500;11.188;2023-12-14T03:33:35;7.50;99.90
32865;DHT22;19219;44.500;11.188;2023-12-14T03:36:02;7.40;99.90
32865;DHT22;19219;44.500;11.188;2023-12-14T03:38:28;7.30;99.90
32865;DHT22;19219;44.500;11.188;2023-12-14T03:40:53;7.30;99.90
32865;DHT22;19219;44.500;11.188;2023-12-14T03:43:19;7.30;99.90
32865;DHT22;19219;44.500;11.188;2023-12-14T03:45:45;7.40;99.90
32865;DHT22;19219;44.500;11.188;2023-12-14T03:48:11;7.40;99.90
32865;DHT22;19219;44.500;11.188;2023-12-14T03:50:36;7.40;99.90
32865;DHT22;19219;44.500;11.188;2023-12-14T03:53:02;7.50;99.90
32865;DHT22;19219;44.500;11.188;2023-12-14T03:55:28;7.50;99.90
32865;DHT22;19219;44.500;11.188;2023-12-14T03:57:53;7.50;99.90
32865;DHT22;19219;44.500;11.188;2023-12-14T04:00:19;7.50;99.90
32865;DHT22;19219;44.500;11.188;2023-12-14T04:02:45;7.50;99.90
32865;DHT22;19219;44.500;11.188;2023-12-14T04:05:11;7.50;99.90
32865;DHT22;19219;44.500;11.188;2023-12-14T04:07:37;7.60;99.90
32865;DHT22;19219;44.500;11.188;2023-12-14T04:10:07;7.70;99.90
32865;DHT22;19219;44.500;11.188;2023-12-14T04:12:33;7.70;99.90
32865;DHT22;19219;44.500;11.188;2023-12-14T04:14:59;7.70;99.90
32865;DHT22;19219;44.500;11.188;2023-12-14T04:17:25;7.70;99.90
32865;DHT22;19219;44.500;11.188;2023-12-14T04:19:50;7.70;99.90
32865;DHT22;19219;44.500;11.188;2023-12-14T04:22:17;7.70;99.90
32865;DHT22;19219;44.500;11.188;2023-12-14T04:24:43;7.70;99.90
32865;DHT22;19219;44.500;11.188;2023-12-14T04:27:08;7.60;99.90
32865;DHT22;19219;44.500;11.188;2023-12-14T04:29:34;7.70;99.90
32865;DHT22;19219;44.500;11.188;2023-12-14T04:32:00;7.70;99.90
32865;DHT22;19219;44.500;11.188;2023-12-14T04:34:25;7.70;99.90
32865;DHT22;19219;44.500;11.188;2023-12-14T04:36:52;7.80;99.90
32865;DHT22;19219;44.500;11.188;2023-12-14T04:39:25;7.80;99.90
32865;DHT22;19219;44.500;11.188;2023-12-14T04:41:52;7.80;99.90
32865;DHT22;19219;44.500;11.188;2023-12-14T04:44:18;7.90;99.90
32865;DHT22;19219;44.500;11.188;2023-12-14T04:46:44;7.90;99.90
32865;DHT22;19219;44.500;11.188;2023-12-14T04:49:10;7.90;99.90
32865;DHT22;19219;44.500;11.188;2023-12-14T04:51:36;7.90;99.90
32865;DHT22;19219;44.500;11.188;2023-12-14T04:54:02;7.90;99.90
32865;DHT22;19219;44.500;11.188;2023-12-14T04:56:28;7.90;99.90
32865;DHT22;19219;44.500;11.188;2023-12-14T04:58:53;7.90;99.90
32865;DHT22;19219;44.500;11.188;2023-12-14T05:01:19;7.90;99.90
32865;DHT22;19219;44.500;11.188;2023-12-14T05:03:45;7.90;99.90
32865;DHT22;19219;44.500;11.188;2023-12-14T05:06:10;8.00;99.90
32865;DHT22;19219;44.500;11.188;2023-12-14T05:08:36;8.00;99.90
32865;DHT22;19219;44.500;11.188;2023-12-14T05:11:02;8.00;99.90
32865;DHT22;19219;44.500;11.188;2023-12-14T05:13:28;8.00;99.90
32865;DHT22;19219;44.500;11.188;2023-12-14T05:15:54;8.10;99.90
32865;DHT22;19219;44.500;11.188;2023-12-14T05:18:20;8.10;99.90
32865;DHT22;19219;44.500;11.188;2023-12-14T05:20:45;8.20;99.90
32865;DHT22;19219;44.500;11.188;2023-12-14T05:23:12;8.20;99.90
32865;DHT22;19219;44.500;11.188;2023-12-14T05:25:38;8.10;99.90
32865;DHT22;19219;44.500;11.188;2023-12-14T05:28:04;8.20;99.90
32865;DHT22;19219;44.500;11.188;2023-12-14T05:30:30;8.20;99.90
32865;DHT22;19219;44.500;11.188;2023-12-14T05:32:55;8.30;99.90
32865;DHT22;19219;44.500;11.188;2023-12-14T05:35:21;8.30;99.90
32865;DHT22;19219;44.500;11.188;2023-12-14T05:37:47;8.40;99.90
32865;DHT22;19219;44.500;11.188;2023-12-14T05:40:13;8.40;99.90
32865;DHT22;19219;44.500;11.188;2023-12-14T05:42:38;8.50;99.90
32865;DHT22;19219;44.500;11.188;2023-12-14T05:45:05;8.50;99.90
32865;DHT22;19219;44.500;11.188;2023-12-14T05:47:31;8.50;99.90
32865;DHT22;19219;44.500;11.188;2023-12-14T05:49:58;8.50;99.90
32865;DHT22;19219;44.500;11.188;2023-12-14T05:52:24;8.50;99.90
32865;DHT22;19219;44.500;11.188;2023-12-14T05:54:50;8.60;99.90
32865;DHT22;19219;44.500;11.188;2023-12-14T05:57:16;8.60;99.90
32865;DHT22;19219;44.500;11.188;2023-12-14T05:59:41;8.60;99.90
32865;DHT22;19219;44.500;11.188;2023-12-14T06:02:07;8.60;99.90
32865;DHT22;19219;44.500;11.188;2023-12-14T06:04:33;8.70;99.90
32865;DHT22;19219;44.500;11.188;2023-12-14T06:06:59;8.70;99.90
32865;DHT22;19219;44.500;11.188;2023-12-14T06:09:25;8.70;99.90
32865;DHT22;19219;44.500;11.188;2023-12-14T06:12:02;8.70;99.90
32865;DHT22;19219;44.500;11.188;2023-12-14T06:14:28;8.60;99.90
32865;DHT22;19219;44.500;11.188;2023-12-14T06:16:53;8.70;99.90
32865;DHT22;19219;44.500;11.188;2023-12-14T06:19:21;8.70;99.90
32865;DHT22;19219;44.500;11.188;2023-12-14T06:21:47;8.60;99.90
32865;DHT22;19219;44.500;11.188;2023-12-14T06:24:12;8.60;99.90
32865;DHT22;19219;44.500;11.188;2023-12-14T06:26:45;8.60;99.90
32865;DHT22;19219;44.500;11.188;2023-12-14T06:29:11;8.60;99.90
32865;DHT22;19219;44.500;11.188;2023-12-14T06:31:38;8.60;99.90
32865;DHT22;19219;44.500;11.188;2023-12-14T06:34:04;8.60;99.90
32865;DHT22;19219;44.500;11.188;2023-12-14T06:36:32;8.60;99.90
32865;DHT22;19219;44.500;11.188;2023-12-14T06:38:59;8.60;99.90
32865;DHT22;19219;44.500;11.188;2023-12-14T06:41:26;8.60;99.90
32865;DHT22;19219;44.500;11.188;2023-12-14T06:43:52;8.60;99.90
32865;DHT22;19219;44.500;11.188;2023-12-14T06:46:18;8.60;99.90
32865;DHT22;19219;44.500;11.188;2023-12-14T06:48:45;8.60;99.90
32865;DHT22;19219;44.500;11.188;2023-12-14T06:51:10;8.60;99.90
32865;DHT22;19219;44.500;11.188;2023-12-14T06:53:40;8.60;99.90
32865;DHT22;19219;44.500;11.188;2023-12-14T06:56:06;8.70;99.90
32865;DHT22;19219;44.500;11.188;2023-12-14T06:58:35;8.70;99.90
32865;DHT22;19219;44.500;11.188;2023-12-14T07:01:01;8.70;99.90
32865;DHT22;19219;44.500;11.188;2023-12-14T07:03:26;8.80;99.90
32865;DHT22;19219;44.500;11.188;2023-12-14T07:05:52;8.80;99.90
32865;DHT22;19219;44.500;11.188;2023-12-14T07:08:18;8.80;99.90
32865;DHT22;19219;44.500;11.188;2023-12-14T07:10:43;8.80;99.90
32865;DHT22;19219;44.500;11.188;2023-12-14T07:13:09;8.80;99.90
32865;DHT22;19219;44.500;11.188;2023-12-14T07:15:35;8.80;99.90
32865;DHT22;19219;44.500;11.188;2023-12-14T07:18:00;8.80;99.90
32865;DHT22;19219;44.500;11.188;2023-12-14T07:20:30;8.80;99.90
32865;DHT22;19219;44.500;11.188;2023-12-14T07:22:56;8.80;99.90
32865;DHT22;19219;44.500;11.188;2023-12-14T07:25:21;8.80;99.90
32865;DHT22;19219;44.500;11.188;2023-12-14T07:27:47;8.80;99.90
32865;DHT22;19219;44.500;11.188;2023-12-14T07:30:13;8.90;99.90
32865;DHT22;19219;44.500;11.188;2023-12-14T07:32:39;8.90;99.90
32865;DHT22;19219;44.500;11.188;2023-12-14T07:35:05;8.90;99.90
32865;DHT22;19219;44.500;11.188;2023-12-14T07:37:31;8.90;99.90
32865;DHT22;19219;44.500;11.188;2023-12-14T07:39:57;8.90;99.90
32865;DHT22;19219;44.500;11.188;2023-12-14T07:42:26;8.90;99.90
32865;DHT22;19219;44.500;11.188;2023-12-14T07:44:52;8.90;99.90
32865;DHT22;19219;44.500;11.188;2023-12-14T07:47:18;9.00;99.90
32865;DHT22;19219;44.500;11.188;2023-12-14T07:49:43;9.00;99.90
32865;DHT22;19219;44.500;11.188;2023-12-14T07:52:09;9.10;99.90
32865;DHT22;19219;44.500;11.188;2023-12-14T07:54:35;9.00;99.90
32865;DHT22;19219;44.500;11.188;2023-12-14T07:57:02;9.10;99.90
32865;DHT22;19219;44.500;11.188;2023-12-14T07:59:27;9.10;99.90
32865;DHT22;19219;44.500;11.188;2023-12-14T08:01:55;9.10;99.90
32865;DHT22;19219;44.500;11.188;2023-12-14T08:04:20;9.10;99.90
32865;DHT22;19219;44.500;11.188;2023-12-14T08:06:46;9.20;99.90
32865;DHT22;19219;44.500;11.188;2023-12-14T08:09:12;9.20;99.90
32865;DHT22;19219;44.500;11.188;2023-12-14T08:11:37;9.20;99.90
32865;DHT22;19219;44.500;11.188;2023-12-14T08:14:03;9.20;99.90
32865;DHT22;19219;44.500;11.188;2023-12-14T08:16:29;9.30;99.90
32865;DHT22;19219;44.500;11.188;2023-12-14T08:18:55;9.30;99.90
32865;DHT22;19219;44.500;11.188;2023-12-14T08:21:20;9.40;99.90
32865;DHT22;19219;44.500;11.188;2023-12-14T08:23:46;9.40;99.90
32865;DHT22;19219;44.500;11.188;2023-12-14T08:26:13;9.40;99.90
32865;DHT22;19219;44.500;11.188;2023-12-14T08:28:39;9.40;99.90
32865;DHT22;19219;44.500;11.188;2023-12-14T08:31:05;9.40;99.90
32865;DHT22;19219;44.500;11.188;2023-12-14T08:33:31;9.40;99.90
32865;DHT22;19219;44.500;11.188;2023-12-14T08:35:57;9.40;99.90
32865;DHT22;19219;44.500;11.188;2023-12-14T08:38:23;9.50;99.90
32865;DHT22;19219;44.500;11.188;2023-12-14T08:40:49;9.50;99.90
32865;DHT22;19219;44.500;11.188;2023-12-14T08:43:14;9.40;99.90
32865;DHT22;19219;44.500;11.188;2023-12-14T08:45:40;9.50;99.90
32865;DHT22;19219;44.500;11.188;2023-12-14T08:48:06;9.50;99.90
32865;DHT22;19219;44.500;11.188;2023-12-14T08:50:32;9.60;99.90
32865;DHT22;19219;44.500;11.188;2023-12-14T08:52:57;9.50;99.90
32865;DHT22;19219;44.500;11.188;2023-12-14T08:55:26;9.60;99.90
32865;DHT22;19219;44.500;11.188;2023-12-14T08:57:52;9.60;99.90
32865;DHT22;19219;44.500;11.188;2023-12-14T09:00:18;9.60;99.90
32865;DHT22;19219;44.500;11.188;2023-12-14T09:02:45;9.60;99.90
32865;DHT22;19219;44.500;11.188;2023-12-14T09:05:14;9.70;99.90
32865;DHT22;19219;44.500;11.188;2023-12-14T09:07:40;9.70;99.90
32865;DHT22;19219;44.500;11.188;2023-12-14T09:10:06;9.70;99.90
32865;DHT22;19219;44.500;11.188;2023-12-14T09:12:33;9.80;99.90
32865;DHT22;19219;44.500;11.188;2023-12-14T09:15:00;9.80;99.90
32865;DHT22;19219;44.500;11.188;2023-12-14T09:17:26;9.90;99.90
32865;DHT22;19219;44.500;11.188;2023-12-14T09:19:57;10.00;99.90
32865;DHT22;19219;44.500;11.188;2023-12-14T09:22:22;9.80;99.90
32865;DHT22;19219;44.500;11.188;2023-12-14T09:24:48;9.90;99.90
32865;DHT22;19219;44.500;11.188;2023-12-14T09:27:14;9.90;99.90
32865;DHT22;19219;44.500;11.188;2023-12-14T09:29:40;9.90;99.90
32865;DHT22;19219;44.500;11.188;2023-12-14T09:32:08;9.90;99.90
32865;DHT22;19219;44.500;11.188;2023-12-14T09:34:34;9.90;99.90
32865;DHT22;19219;44.500;11.188;2023-12-14T09:36:59;9.80;99.90
32865;DHT22;19219;44.500;11.188;2023-12-14T09:39:25;9.90;99.90
32865;DHT22;19219;44.500;11.188;2023-12-14T09:41:51;10.00;99.90
32865;DHT22;19219;44.500;11.188;2023-12-14T09:44:16;10.00;99.90
32865;DHT22;19219;44.500;11.188;2023-12-14T09:46:43;9.90;99.90
32865;DHT22;19219;44.500;11.188;2023-12-14T09:49:15;9.90;99.90
32865;DHT22;19219;44.500;11.188;2023-12-14T09:51:41;10.00;99.90
32865;DHT22;19219;44.500;11.188;2023-12-14T09:54:07;10.00;99.90
32865;DHT22;19219;44.500;11.188;2023-12-14T09:56:33;10.00;99.90
32865;DHT22;19219;44.500;11.188;2023-12-14T09:58:58;9.90;99.90
32865;DHT22;19219;44.500;11.188;2023-12-14T10:01:27;9.90;99.90
32865;DHT22;19219;44.500;11.188;2023-12-14T10:06:33;10.00;99.90
32865;DHT22;19219;44.500;11.188;2023-12-14T10:08:59;10.10;99.90
32865;DHT22;19219;44.500;11.188;2023-12-14T10:11:24;10.10;99.90
32865;DHT22;19219;44.500;11.188;2023-12-14T10:13:50;10.10;99.90
32865;DHT22;19219;44.500;11.188;2023-12-14T10:18:58;10.10;99.90
32865;DHT22;19219;44.500;11.188;2023-12-14T10:21:27;10.20;99.90
32865;DHT22;19219;44.500;11.188;2023-12-14T10:23:56;10.20;99.90
32865;DHT22;19219;44.500;11.188;2023-12-14T10:26:25;10.20;99.90
32865;DHT22;19219;44.500;11.188;2023-12-14T10:28:52;10.10;99.90
32865;DHT22;19219;44.500;11.188;2023-12-14T10:31:18;10.10;99.90
32865;DHT22;19219;44.500;11.188;2023-12-14T10:33:45;10.20;99.90
32865;DHT22;19219;44.500;11.188;2023-12-14T10:36:13;10.20;99.90
32865;DHT22;19219;44.500;11.188;2023-12-14T10:38:40;10.20;99.90
32865;DHT22;19219;44.500;11.188;2023-12-14T10:41:09;10.10;99.90
32865;DHT22;19219;44.500;11.188;2023-12-14T10:43:38;9.80;99.90
32865;DHT22;19219;44.500;11.188;2023-12-14T10:46:05;10.20;99.90
32865;DHT22;19219;44.500;11.188;2023-12-14T10:48:35;10.10;99.90
32865;DHT22;19219;44.500;11.188;2023-12-14T10:51:06;10.00;99.90
32865;DHT22;19219;44.500;11.188;2023-12-14T10:53:34;10.10;99.90
32865;DHT22;19219;44.500;11.188;2023-12-14T10:56:02;10.20;99.90
32865;DHT22;19219;44.500;11.188;2023-12-14T10:58:53;10.10;99.90
32865;DHT22;19219;44.500;11.188;2023-12-14T11:01:20;10.10;99.90
32865;DHT22;19219;44.500;11.188;2023-12-14T11:03:47;10.10;99.90
32865;DHT22;19219;44.500;11.188;2023-12-14T11:06:28;10.20;99.90
32865;DHT22;19219;44.500;11.188;2023-12-14T11:09:01;10.00;99.90
32865;DHT22;19219;44.500;11.188;2023-12-14T11:14:19;10.10;99.90
32865;DHT22;19219;44.500;11.188;2023-12-14T11:16:47;10.10;99.90
32865;DHT22;19219;44.500;11.188;2023-12-14T11:24:23;10.10;99.90
32865;DHT22;19219;44.500;11.188;2023-12-14T11:26:50;10.10;99.90
32865;DHT22;19219;44.500;11.188;2023-12-14T11:29:17;10.20;99.90
32865;DHT22;19219;44.500;11.188;2023-12-14T11:31:42;10.10;99.90
32865;DHT22;19219;44.500;11.188;2023-12-14T11:34:08;10.10;99.90
32865;DHT22;19219;44.500;11.188;2023-12-14T11:36:34;10.10;99.90
32865;DHT22;19219;44.500;11.188;2023-12-14T11:39:00;10.10;99.90
32865;DHT22;19219;44.500;11.188;2023-12-14T11:41:26;10.30;99.90
32865;DHT22;19219;44.500;11.188;2023-12-14T11:43:54;10.30;99.90
32865;DHT22;19219;44.500;11.188;2023-12-14T11:46:21;10.40;99.90
32865;DHT22;19219;44.500;11.188;2023-12-14T11:48:47;10.40;99.90
32865;DHT22;19219;44.500;11.188;2023-12-14T11:51:17;10.50;99.90
32865;DHT22;19219;44.500;11.188;2023-12-14T11:53:47;10.60;99.90
32865;DHT22;19219;44.500;11.188;2023-12-14T11:56:19;10.50;99.90
32865;DHT22;19219;44.500;11.188;2023-12-14T11:58:45;10.50;99.90
32865;DHT22;19219;44.500;11.188;2023-12-14T12:01:18;10.40;99.90
32865;DHT22;19219;44.500;11.188;2023-12-14T12:03:45;10.40;99.90
32865;DHT22;19219;44.500;11.188;2023-12-14T12:06:21;10.40;99.90
32865;DHT22;19219;44.500;11.188;2023-12-14T12:08:48;10.40;99.90
32865;DHT22;19219;44.500;11.188;2023-12-14T12:11:22;10.50;99.90
32865;DHT22;19219;44.500;11.188;2023-12-14T12:13:52;10.50;99.90
32865;DHT22;19219;44.500;11.188;2023-12-14T12:16:18;10.40;99.90
32865;DHT22;19219;44.500;11.188;2023-12-14T12:18:43;10.50;99.90
32865;DHT22;19219;44.500;11.188;2023-12-14T12:21:10;10.60;99.90
32865;DHT22;19219;44.500;11.188;2023-12-14T12:23:36;10.60;99.90
32865;DHT22;19219;44.500;11.188;2023-12-14T12:26:02;10.50;99.90
32865;DHT22;19219;44.500;11.188;2023-12-14T12:28:28;10.50;99.90
32865;DHT22;19219;44.500;11.188;2023-12-14T12:30:54;10.50;99.90
32865;DHT22;19219;44.500;11.188;2023-12-14T12:33:20;10.60;99.90
32865;DHT22;19219;44.500;11.188;2023-12-14T12:35:46;10.70;99.90
32865;DHT22;19219;44.500;11.188;2023-12-14T12:38:12;10.80;99.90
32865;DHT22;19219;44.500;11.188;2023-12-14T12:40:37;10.70;99.90
32865;DHT22;19219;44.500;11.188;2023-12-14T12:43:04;10.80;99.90
32865;DHT22;19219;44.500;11.188;2023-12-14T12:45:29;10.80;99.90
32865;DHT22;19219;44.500;11.188;2023-12-14T12:47:57;10.90;99.90
32865;DHT22;19219;44.500;11.188;2023-12-14T12:50:23;10.90;99.90
32865;DHT22;19219;44.500;11.188;2023-12-14T12:52:49;10.90;99.90
32865;DHT22;19219;44.500;11.188;2023-12-14T12:55:16;11.00;99.90
32865;DHT22;19219;44.500;11.188;2023-12-14T12:57:42;11.00;99.90
32865;DHT22;19219;44.500;11.188;2023-12-14T13:00:09;11.10;99.90
32865;DHT22;19219;44.500;11.188;2023-12-14T13:02:39;11.10;99.90
32865;DHT22;19219;44.500;11.188;2023-12-14T13:05:06;11.20;99.90
32865;DHT22;19219;44.500;11.188;2023-12-14T13:07:34;11.20;99.90
32865;DHT22;19219;44.500;11.188;2023-12-14T13:09:59;11.20;99.90
32865;DHT22;19219;44.500;11.188;2023-12-14T13:12:25;11.20;99.90
32865;DHT22;19219;44.500;11.188;2023-12-14T13:14:51;11.20;99.90
32865;DHT22;19219;44.500;11.188;2023-12-14T13:17:17;11.20;99.90
32865;DHT22;19219;44.500;11.188;2023-12-14T13:19:44;11.30;99.90
32865;DHT22;19219;44.500;11.188;2023-12-14T13:22:10;11.40;99.90
32865;DHT22;19219;44.500;11.188;2023-12-14T13:24:37;11.20;99.90
32865;DHT22;19219;44.500;11.188;2023-12-14T13:27:03;11.20;99.90
32865;DHT22;19219;44.500;11.188;2023-12-14T13:29:30;11.10;99.90
32865;DHT22;19219;44.500;11.188;2023-12-14T13:31:58;11.10;99.90
32865;DHT22;19219;44.500;11.188;2023-12-14T13:34:27;11.30;99.90
32865;DHT22;19219;44.500;11.188;2023-12-14T13:36:54;11.40;99.90
32865;DHT22;19219;44.500;11.188;2023-12-14T13:39:20;11.50;99.90
32865;DHT22;19219;44.500;11.188;2023-12-14T13:41:45;11.60;99.90
32865;DHT22;19219;44.500;11.188;2023-12-14T13:44:11;11.50;99.90
32865;DHT22;19219;44.500;11.188;2023-12-14T13:46:37;11.60;99.90
32865;DHT22;19219;44.500;11.188;2023-12-14T13:49:02;11.60;99.90
32865;DHT22;19219;44.500;11.188;2023-12-14T13:51:28;11.50;99.90
32865;DHT22;19219;44.500;11.188;2023-12-14T13:53:54;11.50;99.90
32865;DHT22;19219;44.500;11.188;2023-12-14T13:56:20;11.40;99.90
32865;DHT22;19219;44.500;11.188;2023-12-14T13:58:46;11.50;99.90
32865;DHT22;19219;44.500;11.188;2023-12-14T14:01:12;11.60;99.90
32865;DHT22;19219;44.500;11.188;2023-12-14T14:03:40;11.70;99.90
32865;DHT22;19219;44.500;11.188;2023-12-14T14:06:06;11.70;99.90
32865;DHT22;19219;44.500;11.188;2023-12-14T14:08:32;11.60;99.90
32865;DHT22;19219;44.500;11.188;2023-12-14T14:10:58;11.60;99.90
32865;DHT22;19219;44.500;11.188;2023-12-14T14:13:24;11.70;99.90
32865;DHT22;19219;44.500;11.188;2023-12-14T14:15:50;11.70;99.90
32865;DHT22;19219;44.500;11.188;2023-12-14T14:18:16;11.70;99.90
32865;DHT22;19219;44.500;11.188;2023-12-14T14:20:42;11.70;99.90
32865;DHT22;19219;44.500;11.188;2023-12-14T14:23:08;11.70;99.90
32865;DHT22;19219;44.500;11.188;2023-12-14T14:25:33;11.60;99.90
32865;DHT22;19219;44.500;11.188;2023-12-14T14:27:59;11.60;99.90
32865;DHT22;19219;44.500;11.188;2023-12-14T14:30:25;11.60;99.90
32865;DHT22;19219;44.500;11.188;2023-12-14T14:32:51;11.60;99.90
32865;DHT22;19219;44.500;11.188;2023-12-14T14:35:17;11.60;99.90
32865;DHT22;19219;44.500;11.188;2023-12-14T14:37:43;11.50;99.90
32865;DHT22;19219;44.500;11.188;2023-12-14T14:40:12;11.50;99.90
32865;DHT22;19219;44.500;11.188;2023-12-14T14:42:39;11.40;99.90
32865;DHT22;19219;44.500;11.188;2023-12-14T14:45:09;11.40;99.90
32865;DHT22;19219;44.500;11.188;2023-12-14T14:47:35;11.20;99.90
32865;DHT22;19219;44.500;11.188;2023-12-14T14:50:02;11.20;99.90
32865;DHT22;19219;44.500;11.188;2023-12-14T14:52:32;11.10;99.90
32865;DHT22;19219;44.500;11.188;2023-12-14T14:54:58;11.10;99.90
32865;DHT22;19219;44.500;11.188;2023-12-14T14:57:24;11.00;99.90
32865;DHT22;19219;44.500;11.188;2023-12-14T14:59:51;11.00;99.90
32865;DHT22;19219;44.500;11.188;2023-12-14T15:02:16;11.00;99.90
32865;DHT22;19219;44.500;11.188;2023-12-14T15:04:42;10.90;99.90
32865;DHT22;19219;44.500;11.188;2023-12-14T15:07:08;10.80;99.90
32865;DHT22;19219;44.500;11.188;2023-12-14T15:09:33;10.60;99.90
32865;DHT22;19219;44.500;11.188;2023-12-14T15:11:59;10.50;99.90
32865;DHT22;19219;44.500;11.188;2023-12-14T15:14:25;10.40;99.90
32865;DHT22;19219;44.500;11.188;2023-12-14T15:16:53;10.40;99.90
32865;DHT22;19219;44.500;11.188;2023-12-14T15:19:19;10.30;99.90
32865;DHT22;19219;44.500;11.188;2023-12-14T15:21:45;10.20;99.90
32865;DHT22;19219;44.500;11.188;2023-12-14T15:24:10;10.00;99.90
32865;DHT22;19219;44.500;11.188;2023-12-14T15:26:36;9.90;99.90
32865;DHT22;19219;44.500;11.188;2023-12-14T15:29:02;9.60;99.90
32865;DHT22;19219;44.500;11.188;2023-12-14T15:31:29;9.40;99.90
32865;DHT22;19219;44.500;11.188;2023-12-14T15:33:54;9.30;99.90